createdAt,value
2018-04-22T00:00:34.478Z,1011.90
2018-04-22T00:01:09.991Z,1011.90
2018-04-22T00:01:45.680Z,1011.88
2018-04-22T00:02:21.009Z,1011.89
2018-04-22T00:02:56.598Z,1011.85
2018-04-22T00:03:32.031Z,1011.87
2018-04-22T00:04:07.331Z,1011.83
2018-04-22T00:04:42.658Z,1011.84
2018-04-22T00:05:17.763Z,1011.82
2018-04-22T00:05:52.893Z,1011.85
2018-04-22T00:06:28.173Z,1011.79
2018-04-22T00:07:03.377Z,1011.79
2018-04-22T00:07:38.664Z,1011.78
2018-04-22T00:08:14.079Z,1011.76
2018-04-22T00:08:49.312Z,1011.79
2018-04-22T00:09:24.944Z,1011.79
2018-04-22T00:10:00.245Z,1011.79
2018-04-22T00:10:35.479Z,1011.81
2018-04-22T00:11:10.587Z,1011.81
2018-04-22T00:11:45.692Z,1011.83
2018-04-22T00:12:20.894Z,1011.87
2018-04-22T00:12:56.225Z,1011.83
2018-04-22T00:13:31.447Z,1011.84
2018-04-22T00:14:06.779Z,1011.81
2018-04-22T00:14:42.078Z,1011.83
2018-04-22T00:15:17.616Z,1011.82
2018-04-22T00:15:53.324Z,1011.82
2018-04-22T00:16:28.751Z,1011.81
2018-04-22T00:17:04.140Z,1011.84
2018-04-22T00:17:39.661Z,1011.81
2018-04-22T00:18:14.954Z,1011.84
2018-04-22T00:18:50.289Z,1011.79
2018-04-22T00:19:25.534Z,1011.82
2018-04-22T00:20:00.872Z,1011.80
2018-04-22T00:20:36.488Z,1011.82
2018-04-22T00:21:11.633Z,1011.80
2018-04-22T00:21:47.232Z,1011.83
2018-04-22T00:22:22.848Z,1011.79
2018-04-22T00:22:58.249Z,1011.77
2018-04-22T00:23:33.565Z,1011.78
2018-04-22T00:24:08.949Z,1011.83
2018-04-22T00:24:45.520Z,1011.80
2018-04-22T00:25:20.817Z,1011.78
2018-04-22T00:25:56.260Z,1011.78
2018-04-22T00:26:31.769Z,1011.76
2018-04-22T00:27:06.988Z,1011.77
2018-04-22T00:27:42.397Z,1011.74
2018-04-22T00:28:17.698Z,1011.76
2018-04-22T00:28:52.978Z,1011.72
2018-04-22T00:29:28.518Z,1011.72
2018-04-22T00:30:03.851Z,1011.74
2018-04-22T00:30:40.198Z,1011.71
2018-04-22T00:31:15.498Z,1011.71
2018-04-22T00:31:50.829Z,1011.75
2018-04-22T00:32:26.025Z,1011.75
2018-04-22T00:33:01.365Z,1011.73
2018-04-22T00:33:36.651Z,1011.71
2018-04-22T00:34:11.870Z,1011.67
2018-04-22T00:34:47.085Z,1011.69
2018-04-22T00:35:22.553Z,1011.71
2018-04-22T00:35:57.864Z,1011.65
2018-04-22T00:36:33.369Z,1011.63
2018-04-22T00:37:08.749Z,1011.66
2018-04-22T00:37:44.279Z,1011.64
2018-04-22T00:38:19.718Z,1011.63
2018-04-22T00:38:55.138Z,1011.60
2018-04-22T00:39:30.324Z,1011.63
2018-04-22T00:40:05.953Z,1011.62
2018-04-22T00:40:41.462Z,1011.58
2018-04-22T00:41:17.096Z,1011.54
2018-04-22T00:41:52.384Z,1011.54
2018-04-22T00:42:27.691Z,1011.50
2018-04-22T00:43:03.082Z,1011.53
2018-04-22T00:43:38.390Z,1011.50
2018-04-22T00:44:13.784Z,1011.49
2018-04-22T00:44:49.013Z,1011.52
2018-04-22T00:45:24.205Z,1011.51
2018-04-22T00:45:59.476Z,1011.49
2018-04-22T00:46:34.664Z,1011.46
2018-04-22T00:47:09.998Z,1011.46
2018-04-22T00:47:45.101Z,1011.42
2018-04-22T00:48:20.826Z,1011.46
2018-04-22T00:48:56.215Z,1011.44
2018-04-22T00:49:31.735Z,1011.39
2018-04-22T00:50:06.826Z,1011.38
2018-04-22T00:50:42.394Z,1011.38
2018-04-22T00:51:17.804Z,1011.34
2018-04-22T00:51:53.230Z,1011.34
2018-04-22T00:52:28.707Z,1011.33
2018-04-22T00:53:04.262Z,1011.33
2018-04-22T00:53:39.686Z,1011.31
2018-04-22T00:54:15.524Z,1011.28
2018-04-22T00:54:51.147Z,1011.27
2018-04-22T00:55:26.459Z,1011.28
2018-04-22T00:56:01.765Z,1011.32
2018-04-22T00:56:37.184Z,1011.29
2018-04-22T00:57:12.302Z,1011.27
2018-04-22T00:57:47.639Z,1011.24
2018-04-22T00:58:22.963Z,1011.24
2018-04-22T00:58:58.201Z,1011.26
2018-04-22T00:59:33.804Z,1011.25
2018-04-22T01:00:09.240Z,1011.23
2018-04-22T01:00:44.548Z,1011.23
2018-04-22T01:01:19.815Z,1011.21
2018-04-22T01:01:54.911Z,1011.23
2018-04-22T01:02:30.347Z,1011.17
2018-04-22T01:03:05.668Z,1011.20
2018-04-22T01:03:40.836Z,1011.20
2018-04-22T01:04:16.313Z,1011.17
2018-04-22T01:04:53.937Z,1011.14
2018-04-22T01:05:29.244Z,1011.14
2018-04-22T01:06:04.571Z,1011.10
2018-04-22T01:06:40.803Z,1011.12
2018-04-22T01:07:15.944Z,1011.12
2018-04-22T01:07:51.351Z,1011.09
2018-04-22T01:08:26.663Z,1011.08
2018-04-22T01:09:01.857Z,1011.09
2018-04-22T01:09:37.101Z,1011.08
2018-04-22T01:10:12.692Z,1011.04
2018-04-22T01:10:50.118Z,1011.06
2018-04-22T01:11:25.512Z,1011.06
2018-04-22T01:12:01.165Z,1011.07
2018-04-22T01:12:37.364Z,1011.03
2018-04-22T01:13:12.732Z,1011.00
2018-04-22T01:13:48.094Z,1010.99
2018-04-22T01:14:23.333Z,1010.95
2018-04-22T01:14:58.521Z,1010.96
2018-04-22T01:15:33.838Z,1010.95
2018-04-22T01:16:09.347Z,1010.94
2018-04-22T01:16:44.707Z,1010.94
2018-04-22T01:17:20.021Z,1010.93
2018-04-22T01:17:58.534Z,1010.93
2018-04-22T01:18:34.036Z,1010.92
2018-04-22T01:19:09.770Z,1010.88
2018-04-22T01:19:45.080Z,1010.89
2018-04-22T01:20:20.437Z,1010.91
2018-04-22T01:20:55.630Z,1010.87
2018-04-22T01:21:31.048Z,1010.88
2018-04-22T01:22:06.376Z,1010.85
2018-04-22T01:22:41.733Z,1010.88
2018-04-22T01:23:16.923Z,1010.86
2018-04-22T01:23:52.249Z,1010.88
2018-04-22T01:24:27.668Z,1010.79
2018-04-22T01:25:02.796Z,1010.85
2018-04-22T01:25:38.371Z,1010.85
2018-04-22T01:26:14.188Z,1010.87
2018-04-22T01:26:49.282Z,1010.86
2018-04-22T01:27:24.531Z,1010.84
2018-04-22T01:27:59.737Z,1010.86
2018-04-22T01:28:35.066Z,1010.88
2018-04-22T01:29:10.551Z,1010.86
2018-04-22T01:29:45.879Z,1010.88
2018-04-22T01:30:21.184Z,1010.89
2018-04-22T01:30:56.917Z,1010.93
2018-04-22T01:31:32.323Z,1010.88
2018-04-22T01:32:07.688Z,1010.91
2018-04-22T01:32:43.025Z,1010.88
2018-04-22T01:33:18.141Z,1010.86
2018-04-22T01:33:53.352Z,1010.86
2018-04-22T01:34:28.486Z,1010.84
2018-04-22T01:35:03.982Z,1010.83
2018-04-22T01:35:40.004Z,1010.81
2018-04-22T01:36:15.320Z,1010.82
2018-04-22T01:36:50.545Z,1010.85
2018-04-22T01:37:25.967Z,1010.83
2018-04-22T01:38:01.352Z,1010.83
2018-04-22T01:38:36.845Z,1010.81
2018-04-22T01:39:12.159Z,1010.85
2018-04-22T01:39:47.448Z,1010.86
2018-04-22T01:40:23.363Z,1010.84
2018-04-22T01:40:58.772Z,1010.80
2018-04-22T01:41:34.293Z,1010.83
2018-04-22T01:42:09.490Z,1010.81
2018-04-22T01:42:44.962Z,1010.80
2018-04-22T01:43:20.403Z,1010.80
2018-04-22T01:43:55.719Z,1010.81
2018-04-22T01:44:30.916Z,1010.82
2018-04-22T01:45:06.340Z,1010.78
2018-04-22T01:45:41.657Z,1010.80
2018-04-22T01:46:17.069Z,1010.80
2018-04-22T01:46:52.477Z,1010.77
2018-04-22T01:47:27.718Z,1010.78
2018-04-22T01:48:03.117Z,1010.79
2018-04-22T01:48:38.557Z,1010.71
2018-04-22T01:49:13.840Z,1010.77
2018-04-22T01:49:49.468Z,1010.74
2018-04-22T01:50:24.648Z,1010.75
2018-04-22T01:50:59.970Z,1010.74
2018-04-22T01:51:35.302Z,1010.72
2018-04-22T01:52:10.621Z,1010.70
2018-04-22T01:52:46.146Z,1010.69
2018-04-22T01:53:21.474Z,1010.71
2018-04-22T01:53:56.904Z,1010.69
2018-04-22T01:54:32.459Z,1010.66
2018-04-22T01:55:07.966Z,1010.68
2018-04-22T01:55:43.078Z,1010.64
2018-04-22T01:56:18.684Z,1010.65
2018-04-22T01:56:54.119Z,1010.64
2018-04-22T01:57:29.619Z,1010.65
2018-04-22T01:58:05.049Z,1010.61
2018-04-22T01:58:40.566Z,1010.59
2018-04-22T01:59:16.007Z,1010.60
2018-04-22T01:59:51.420Z,1010.57
2018-04-22T02:00:26.580Z,1010.56
2018-04-22T02:01:01.973Z,1010.55
2018-04-22T02:01:37.123Z,1010.55
2018-04-22T02:02:12.632Z,1010.55
2018-04-22T02:02:47.842Z,1010.54
2018-04-22T02:03:23.029Z,1010.53
2018-04-22T02:03:58.269Z,1010.52
2018-04-22T02:04:33.363Z,1010.51
2018-04-22T02:05:08.792Z,1010.49
2018-04-22T02:05:43.999Z,1010.48
2018-04-22T02:06:19.247Z,1010.53
2018-04-22T02:06:54.849Z,1010.49
2018-04-22T02:07:30.281Z,1010.51
2018-04-22T02:08:05.680Z,1010.47
2018-04-22T02:08:41.003Z,1010.48
2018-04-22T02:09:16.528Z,1010.45
2018-04-22T02:09:52.032Z,1010.48
2018-04-22T02:10:27.265Z,1010.47
2018-04-22T02:11:02.886Z,1010.45
2018-04-22T02:11:38.026Z,1010.47
2018-04-22T02:12:13.458Z,1010.43
2018-04-22T02:12:48.557Z,1010.45
2018-04-22T02:13:23.991Z,1010.44
2018-04-22T02:13:59.609Z,1010.46
2018-04-22T02:14:34.747Z,1010.43
2018-04-22T02:15:10.054Z,1010.46
2018-04-22T02:15:45.276Z,1010.46
2018-04-22T02:16:20.585Z,1010.45
2018-04-22T02:16:55.906Z,1010.43
2018-04-22T02:17:31.294Z,1010.44
2018-04-22T02:18:06.730Z,1010.44
2018-04-22T02:18:41.819Z,1010.44
2018-04-22T02:19:17.378Z,1010.43
2018-04-22T02:19:52.364Z,1010.45
2018-04-22T02:20:27.773Z,1010.39
2018-04-22T02:21:03.093Z,1010.41
2018-04-22T02:21:38.235Z,1010.41
2018-04-22T02:22:13.533Z,1010.40
2018-04-22T02:22:48.854Z,1010.40
2018-04-22T02:23:24.249Z,1010.37
2018-04-22T02:23:59.799Z,1010.38
2018-04-22T02:24:35.091Z,1010.42
2018-04-22T02:25:10.454Z,1010.40
2018-04-22T02:25:45.749Z,1010.38
2018-04-22T02:26:21.289Z,1010.39
2018-04-22T02:26:58.490Z,1010.36
2018-04-22T02:27:34.122Z,1010.36
2018-04-22T02:28:09.911Z,1010.30
2018-04-22T02:28:45.222Z,1010.30
2018-04-22T02:29:20.851Z,1010.30
2018-04-22T02:29:56.275Z,1010.26
2018-04-22T02:30:31.365Z,1010.31
2018-04-22T02:31:06.797Z,1010.25
2018-04-22T02:31:42.108Z,1010.29
2018-04-22T02:32:17.321Z,1010.22
2018-04-22T02:32:52.921Z,1010.20
2018-04-22T02:33:28.457Z,1010.16
2018-04-22T02:34:03.990Z,1010.21
2018-04-22T02:34:39.515Z,1010.20
2018-04-22T02:35:14.823Z,1010.21
2018-04-22T02:35:51.352Z,1010.18
2018-04-22T02:36:26.742Z,1010.16
2018-04-22T02:37:01.979Z,1010.16
2018-04-22T02:37:37.172Z,1010.19
2018-04-22T02:38:12.722Z,1010.16
2018-04-22T02:38:48.329Z,1010.13
2018-04-22T02:39:23.755Z,1010.12
2018-04-22T02:39:58.967Z,1010.12
2018-04-22T02:40:34.392Z,1010.14
2018-04-22T02:41:09.779Z,1010.12
2018-04-22T02:41:45.112Z,1010.13
2018-04-22T02:42:20.596Z,1010.15
2018-04-22T02:42:55.646Z,1010.12
2018-04-22T02:43:31.284Z,1010.07
2018-04-22T02:44:06.614Z,1010.07
2018-04-22T02:44:41.825Z,1010.10
2018-04-22T02:45:17.263Z,1010.05
2018-04-22T02:45:52.685Z,1010.08
2018-04-22T02:46:27.944Z,1010.07
2018-04-22T02:47:03.553Z,1010.04
2018-04-22T02:47:38.979Z,1010.06
2018-04-22T02:48:14.701Z,1010.05
2018-04-22T02:48:50.010Z,1010.07
2018-04-22T02:49:25.352Z,1010.07
2018-04-22T02:50:00.757Z,1010.01
2018-04-22T02:50:36.241Z,1010.03
2018-04-22T02:51:11.549Z,1010.05
2018-04-22T02:51:47.002Z,1010.00
2018-04-22T02:52:22.328Z,1009.98
2018-04-22T02:52:57.510Z,1009.98
2018-04-22T02:53:32.839Z,1009.98
2018-04-22T02:54:07.934Z,1009.96
2018-04-22T02:54:43.296Z,1009.94
2018-04-22T02:55:18.678Z,1009.95
2018-04-22T02:55:54.318Z,1009.93
2018-04-22T02:56:29.497Z,1009.91
2018-04-22T02:57:04.702Z,1009.94
2018-04-22T02:57:40.000Z,1009.93
2018-04-22T02:58:15.447Z,1009.90
2018-04-22T02:58:50.942Z,1009.88
2018-04-22T02:59:26.385Z,1009.88
2018-04-22T03:00:01.808Z,1009.90
2018-04-22T03:00:38.434Z,1009.87
2018-04-22T03:01:13.740Z,1009.85
2018-04-22T03:01:49.176Z,1009.84
2018-04-22T03:02:24.169Z,1009.83
2018-04-22T03:02:59.476Z,1009.81
2018-04-22T03:03:36.173Z,1009.84
2018-04-22T03:04:11.391Z,1009.80
2018-04-22T03:04:46.609Z,1009.80
2018-04-22T03:05:22.181Z,1009.75
2018-04-22T03:05:57.219Z,1009.74
2018-04-22T03:06:32.639Z,1009.74
2018-04-22T03:07:07.968Z,1009.72
2018-04-22T03:07:43.302Z,1009.74
2018-04-22T03:08:18.819Z,1009.71
2018-04-22T03:08:54.039Z,1009.68
2018-04-22T03:09:29.264Z,1009.70
2018-04-22T03:10:05.010Z,1009.69
2018-04-22T03:10:40.719Z,1009.67
2018-04-22T03:11:16.141Z,1009.65
2018-04-22T03:11:51.441Z,1009.67
2018-04-22T03:12:26.775Z,1009.73
2018-04-22T03:13:02.179Z,1009.70
2018-04-22T03:13:37.497Z,1009.71
2018-04-22T03:14:12.996Z,1009.74
2018-04-22T03:14:48.478Z,1009.73
2018-04-22T03:15:23.674Z,1009.74
2018-04-22T03:15:59.210Z,1009.73
2018-04-22T03:16:34.593Z,1009.72
2018-04-22T03:17:10.017Z,1009.71
2018-04-22T03:17:45.414Z,1009.73
2018-04-22T03:18:21.052Z,1009.71
2018-04-22T03:18:56.343Z,1009.72
2018-04-22T03:19:31.720Z,1009.72
2018-04-22T03:20:07.733Z,1009.69
2018-04-22T03:20:43.659Z,1009.68
2018-04-22T03:21:19.076Z,1009.67
2018-04-22T03:21:54.285Z,1009.74
2018-04-22T03:22:29.567Z,1009.67
2018-04-22T03:23:05.110Z,1009.67
2018-04-22T03:23:40.505Z,1009.69
2018-04-22T03:24:16.066Z,1009.62
2018-04-22T03:24:53.814Z,1009.63
2018-04-22T03:25:29.249Z,1009.61
2018-04-22T03:26:04.540Z,1009.64
2018-04-22T03:26:39.775Z,1009.57
2018-04-22T03:27:15.176Z,1009.58
2018-04-22T03:27:50.537Z,1009.59
2018-04-22T03:28:26.028Z,1009.60
2018-04-22T03:29:01.366Z,1009.59
2018-04-22T03:29:36.655Z,1009.57
2018-04-22T03:30:12.098Z,1009.57
2018-04-22T03:30:47.290Z,1009.58
2018-04-22T03:31:22.750Z,1009.56
2018-04-22T03:31:58.334Z,1009.58
2018-04-22T03:32:33.860Z,1009.56
2018-04-22T03:33:09.245Z,1009.53
2018-04-22T03:33:44.379Z,1009.52
2018-04-22T03:34:19.651Z,1009.55
2018-04-22T03:34:54.793Z,1009.49
2018-04-22T03:35:29.899Z,1009.48
2018-04-22T03:36:05.251Z,1009.49
2018-04-22T03:36:40.469Z,1009.49
2018-04-22T03:37:15.814Z,1009.47
2018-04-22T03:37:51.018Z,1009.44
2018-04-22T03:38:26.654Z,1009.42
2018-04-22T03:39:02.133Z,1009.41
2018-04-22T03:39:37.379Z,1009.36
2018-04-22T03:40:13.020Z,1009.34
2018-04-22T03:40:48.245Z,1009.37
2018-04-22T03:41:23.924Z,1009.34
2018-04-22T03:41:59.136Z,1009.34
2018-04-22T03:42:34.439Z,1009.31
2018-04-22T03:43:09.942Z,1009.35
2018-04-22T03:43:45.139Z,1009.33
2018-04-22T03:44:20.566Z,1009.31
2018-04-22T03:44:56.166Z,1009.31
2018-04-22T03:45:31.580Z,1009.33
2018-04-22T03:46:06.892Z,1009.28
2018-04-22T03:46:42.238Z,1009.28
2018-04-22T03:47:17.738Z,1009.28
2018-04-22T03:47:53.173Z,1009.30
2018-04-22T03:48:28.460Z,1009.30
2018-04-22T03:49:03.813Z,1009.32
2018-04-22T03:49:39.188Z,1009.32
2018-04-22T03:50:14.848Z,1009.33
2018-04-22T03:50:50.350Z,1009.38
2018-04-22T03:51:25.491Z,1009.35
2018-04-22T03:52:00.715Z,1009.38
2018-04-22T03:52:36.033Z,1009.37
2018-04-22T03:53:11.363Z,1009.36
2018-04-22T03:53:46.595Z,1009.36
2018-04-22T03:54:21.892Z,1009.35
2018-04-22T03:54:57.244Z,1009.33
2018-04-22T03:55:32.635Z,1009.33
2018-04-22T03:56:08.071Z,1009.34
2018-04-22T03:56:43.382Z,1009.35
2018-04-22T03:57:18.831Z,1009.34
2018-04-22T03:57:54.232Z,1009.34
2018-04-22T03:58:29.656Z,1009.32
2018-04-22T03:59:05.041Z,1009.34
2018-04-22T03:59:40.659Z,1009.35
2018-04-22T04:00:15.967Z,1009.28
2018-04-22T04:00:51.612Z,1009.33
2018-04-22T04:01:27.004Z,1009.29
2018-04-22T04:02:02.442Z,1009.29
2018-04-22T04:02:37.675Z,1009.27
2018-04-22T04:03:12.886Z,1009.29
2018-04-22T04:03:48.569Z,1009.22
2018-04-22T04:04:24.039Z,1009.26
2018-04-22T04:04:59.234Z,1009.23
2018-04-22T04:05:35.596Z,1009.24
2018-04-22T04:06:11.013Z,1009.27
2018-04-22T04:06:46.481Z,1009.26
2018-04-22T04:07:21.980Z,1009.27
2018-04-22T04:07:57.426Z,1009.27
2018-04-22T04:08:32.712Z,1009.24
2018-04-22T04:09:07.930Z,1009.30
2018-04-22T04:09:43.241Z,1009.27
2018-04-22T04:10:18.575Z,1009.27
2018-04-22T04:10:53.873Z,1009.30
2018-04-22T04:11:29.202Z,1009.28
2018-04-22T04:12:04.626Z,1009.27
2018-04-22T04:12:40.746Z,1009.30
2018-04-22T04:13:16.140Z,1009.31
2018-04-22T04:13:51.346Z,1009.28
2018-04-22T04:14:26.858Z,1009.32
2018-04-22T04:15:02.279Z,1009.30
2018-04-22T04:15:37.606Z,1009.30
2018-04-22T04:16:13.033Z,1009.23
2018-04-22T04:16:48.442Z,1009.22
2018-04-22T04:17:23.867Z,1009.21
2018-04-22T04:17:58.970Z,1009.19
2018-04-22T04:18:34.302Z,1009.15
2018-04-22T04:19:09.595Z,1009.11
2018-04-22T04:19:44.925Z,1009.08
2018-04-22T04:20:20.251Z,1009.08
2018-04-22T04:20:55.794Z,1009.00
2018-04-22T04:21:31.081Z,1009.03
2018-04-22T04:22:06.220Z,1009.01
2018-04-22T04:22:41.827Z,1009.00
2018-04-22T04:23:17.041Z,1008.97
2018-04-22T04:23:52.222Z,1008.96
2018-04-22T04:24:27.546Z,1009.00
2018-04-22T04:25:03.244Z,1008.96
2018-04-22T04:25:38.697Z,1008.99
2018-04-22T04:26:14.209Z,1008.99
2018-04-22T04:26:49.419Z,1008.98
2018-04-22T04:27:24.707Z,1008.97
2018-04-22T04:28:00.032Z,1008.98
2018-04-22T04:28:35.222Z,1008.98
2018-04-22T04:29:10.542Z,1008.97
2018-04-22T04:29:45.824Z,1008.95
2018-04-22T04:30:21.067Z,1008.96
2018-04-22T04:30:56.380Z,1008.98
2018-04-22T04:31:31.892Z,1009.00
2018-04-22T04:32:07.182Z,1008.99
2018-04-22T04:32:42.517Z,1009.01
2018-04-22T04:33:17.928Z,1008.99
2018-04-22T04:33:53.205Z,1008.97
2018-04-22T04:34:28.697Z,1008.98
2018-04-22T04:35:04.156Z,1008.93
2018-04-22T04:35:39.773Z,1008.92
2018-04-22T04:36:15.207Z,1008.91
2018-04-22T04:36:50.517Z,1008.89
2018-04-22T04:37:25.855Z,1008.88
2018-04-22T04:38:01.336Z,1008.89
2018-04-22T04:38:36.560Z,1008.89
2018-04-22T04:39:11.885Z,1008.85
2018-04-22T04:39:47.210Z,1008.87
2018-04-22T04:40:22.701Z,1008.88
2018-04-22T04:40:57.950Z,1008.86
2018-04-22T04:41:33.445Z,1008.82
2018-04-22T04:42:08.995Z,1008.82
2018-04-22T04:42:44.436Z,1008.85
2018-04-22T04:43:19.991Z,1008.85
2018-04-22T04:43:55.301Z,1008.81
2018-04-22T04:44:30.616Z,1008.82
2018-04-22T04:45:06.216Z,1008.83
2018-04-22T04:45:41.547Z,1008.81
2018-04-22T04:46:17.135Z,1008.82
2018-04-22T04:46:52.583Z,1008.83
2018-04-22T04:47:27.809Z,1008.84
2018-04-22T04:48:03.021Z,1008.84
2018-04-22T04:48:38.217Z,1008.82
2018-04-22T04:49:13.638Z,1008.84
2018-04-22T04:49:49.033Z,1008.87
2018-04-22T04:50:24.551Z,1008.86
2018-04-22T04:50:59.701Z,1008.82
2018-04-22T04:51:35.254Z,1008.84
2018-04-22T04:52:10.848Z,1008.86
2018-04-22T04:52:46.053Z,1008.81
2018-04-22T04:53:21.168Z,1008.81
2018-04-22T04:53:56.696Z,1008.83
2018-04-22T04:54:32.307Z,1008.83
2018-04-22T04:55:07.442Z,1008.80
2018-04-22T04:55:43.060Z,1008.79
2018-04-22T04:56:18.393Z,1008.81
2018-04-22T04:56:54.180Z,1008.76
2018-04-22T04:57:29.682Z,1008.77
2018-04-22T04:58:05.009Z,1008.74
2018-04-22T04:58:40.652Z,1008.78
2018-04-22T04:59:16.333Z,1008.81
2018-04-22T04:59:51.753Z,1008.76
2018-04-22T05:00:26.927Z,1008.76
2018-04-22T05:01:02.059Z,1008.76
2018-04-22T05:01:37.450Z,1008.70
2018-04-22T05:02:13.067Z,1008.70
2018-04-22T05:02:48.251Z,1008.69
2018-04-22T05:03:23.672Z,1008.67
2018-04-22T05:03:59.178Z,1008.68
2018-04-22T05:04:34.592Z,1008.70
2018-04-22T05:05:10.001Z,1008.67
2018-04-22T05:05:45.821Z,1008.72
2018-04-22T05:06:21.640Z,1008.74
2018-04-22T05:06:57.172Z,1008.73
2018-04-22T05:07:32.385Z,1008.72
2018-04-22T05:08:07.926Z,1008.72
2018-04-22T05:08:43.117Z,1008.69
2018-04-22T05:09:18.443Z,1008.67
2018-04-22T05:09:53.859Z,1008.66
2018-04-22T05:10:29.320Z,1008.69
2018-04-22T05:11:04.626Z,1008.70
2018-04-22T05:11:39.965Z,1008.69
2018-04-22T05:12:15.367Z,1008.70
2018-04-22T05:12:50.700Z,1008.67
2018-04-22T05:13:26.112Z,1008.67
2018-04-22T05:14:01.738Z,1008.67
2018-04-22T05:14:37.125Z,1008.65
2018-04-22T05:15:12.238Z,1008.67
2018-04-22T05:15:47.441Z,1008.65
2018-04-22T05:16:22.583Z,1008.67
2018-04-22T05:16:57.892Z,1008.65
2018-04-22T05:17:33.417Z,1008.63
2018-04-22T05:18:08.897Z,1008.62
2018-04-22T05:18:44.097Z,1008.61
2018-04-22T05:19:19.423Z,1008.66
2018-04-22T05:19:54.751Z,1008.61
2018-04-22T05:20:30.071Z,1008.60
2018-04-22T05:21:05.447Z,1008.60
2018-04-22T05:21:41.134Z,1008.57
2018-04-22T05:22:16.355Z,1008.60
2018-04-22T05:22:51.653Z,1008.59
2018-04-22T05:23:27.105Z,1008.57
2018-04-22T05:24:02.507Z,1008.58
2018-04-22T05:24:38.024Z,1008.56
2018-04-22T05:25:13.225Z,1008.56
2018-04-22T05:25:48.970Z,1008.58
2018-04-22T05:26:24.321Z,1008.58
2018-04-22T05:26:59.526Z,1008.57
2018-04-22T05:27:35.015Z,1008.55
2018-04-22T05:28:10.238Z,1008.57
2018-04-22T05:28:45.829Z,1008.57
2018-04-22T05:29:21.150Z,1008.55
2018-04-22T05:29:56.536Z,1008.56
2018-04-22T05:30:31.956Z,1008.56
2018-04-22T05:31:07.383Z,1008.54
2018-04-22T05:31:42.898Z,1008.54
2018-04-22T05:32:18.814Z,1008.53
2018-04-22T05:32:54.458Z,1008.56
2018-04-22T05:33:29.862Z,1008.53
2018-04-22T05:34:05.199Z,1008.54
2018-04-22T05:34:40.893Z,1008.51
2018-04-22T05:35:16.421Z,1008.50
2018-04-22T05:35:54.050Z,1008.54
2018-04-22T05:36:29.405Z,1008.54
2018-04-22T05:37:05.007Z,1008.56
2018-04-22T05:37:40.417Z,1008.56
2018-04-22T05:38:15.914Z,1008.56
2018-04-22T05:38:51.232Z,1008.56
2018-04-22T05:39:26.319Z,1008.59
2018-04-22T05:40:01.730Z,1008.61
2018-04-22T05:40:36.921Z,1008.59
2018-04-22T05:41:12.381Z,1008.57
2018-04-22T05:41:48.107Z,1008.53
2018-04-22T05:42:23.709Z,1008.55
2018-04-22T05:42:58.992Z,1008.55
2018-04-22T05:43:34.214Z,1008.50
2018-04-22T05:44:09.417Z,1008.53
2018-04-22T05:44:44.633Z,1008.53
2018-04-22T05:45:19.828Z,1008.53
2018-04-22T05:45:55.141Z,1008.51
2018-04-22T05:46:30.448Z,1008.52
2018-04-22T05:47:05.568Z,1008.50
2018-04-22T05:47:40.971Z,1008.52
2018-04-22T05:48:16.389Z,1008.49
2018-04-22T05:48:51.696Z,1008.53
2018-04-22T05:49:27.140Z,1008.50
2018-04-22T05:50:02.433Z,1008.49
2018-04-22T05:50:37.545Z,1008.47
2018-04-22T05:51:12.946Z,1008.45
2018-04-22T05:51:48.614Z,1008.44
2018-04-22T05:52:23.928Z,1008.40
2018-04-22T05:52:59.248Z,1008.42
2018-04-22T05:53:34.526Z,1008.38
2018-04-22T05:54:09.648Z,1008.41
2018-04-22T05:54:44.981Z,1008.36
2018-04-22T05:55:20.523Z,1008.36
2018-04-22T05:55:55.712Z,1008.33
2018-04-22T05:56:31.081Z,1008.33
2018-04-22T05:57:06.162Z,1008.30
2018-04-22T05:57:41.390Z,1008.36
2018-04-22T05:58:16.496Z,1008.33
2018-04-22T05:58:51.846Z,1008.32
2018-04-22T05:59:27.040Z,1008.31
2018-04-22T06:00:02.692Z,1008.33
2018-04-22T06:00:38.294Z,1008.31
2018-04-22T06:01:13.611Z,1008.31
2018-04-22T06:01:48.906Z,1008.30
2018-04-22T06:02:24.268Z,1008.29
2018-04-22T06:02:59.845Z,1008.35
2018-04-22T06:03:35.291Z,1008.35
2018-04-22T06:04:10.479Z,1008.32
2018-04-22T06:04:45.698Z,1008.30
2018-04-22T06:05:20.900Z,1008.30
2018-04-22T06:05:56.519Z,1008.30
2018-04-22T06:06:32.156Z,1008.26
2018-04-22T06:07:07.614Z,1008.28
2018-04-22T06:07:42.920Z,1008.31
2018-04-22T06:08:17.961Z,1008.27
2018-04-22T06:08:56.574Z,1008.23
2018-04-22T06:09:31.808Z,1008.25
2018-04-22T06:10:07.668Z,1008.24
2018-04-22T06:10:43.068Z,1008.25
2018-04-22T06:11:18.061Z,1008.22
2018-04-22T06:11:53.504Z,1008.24
2018-04-22T06:12:28.918Z,1008.25
2018-04-22T06:13:04.563Z,1008.28
2018-04-22T06:13:39.960Z,1008.31
2018-04-22T06:14:15.467Z,1008.30
2018-04-22T06:14:50.992Z,1008.37
2018-04-22T06:15:26.288Z,1008.33
2018-04-22T06:16:01.308Z,1008.36
2018-04-22T06:16:37.069Z,1008.31
2018-04-22T06:17:12.675Z,1008.31
2018-04-22T06:17:48.025Z,1008.27
2018-04-22T06:18:23.420Z,1008.30
2018-04-22T06:18:59.064Z,1008.27
2018-04-22T06:19:34.345Z,1008.28
2018-04-22T06:20:09.869Z,1008.30
2018-04-22T06:20:44.864Z,1008.25
2018-04-22T06:21:20.347Z,1008.26
2018-04-22T06:21:55.791Z,1008.28
2018-04-22T06:22:31.302Z,1008.26
2018-04-22T06:23:06.307Z,1008.22
2018-04-22T06:23:41.635Z,1008.23
2018-04-22T06:24:17.142Z,1008.22
2018-04-22T06:24:52.360Z,1008.19
2018-04-22T06:25:27.487Z,1008.19
2018-04-22T06:26:03.009Z,1008.22
2018-04-22T06:26:38.394Z,1008.17
2018-04-22T06:27:13.861Z,1008.16
2018-04-22T06:27:49.456Z,1008.15
2018-04-22T06:28:24.795Z,1008.13
2018-04-22T06:29:01.600Z,1008.09
2018-04-22T06:29:36.943Z,1008.10
2018-04-22T06:30:12.448Z,1008.11
2018-04-22T06:30:47.788Z,1008.10
2018-04-22T06:31:23.091Z,1008.07
2018-04-22T06:31:58.244Z,1008.04
2018-04-22T06:32:34.143Z,1008.04
2018-04-22T06:33:09.680Z,1008.03
2018-04-22T06:33:44.975Z,1008.03
2018-04-22T06:34:20.731Z,1008.00
2018-04-22T06:34:56.354Z,1007.97
2018-04-22T06:35:31.565Z,1008.00
2018-04-22T06:36:07.049Z,1007.97
2018-04-22T06:36:42.455Z,1007.92
2018-04-22T06:37:17.897Z,1007.90
2018-04-22T06:37:53.222Z,1007.93
2018-04-22T06:38:28.527Z,1007.94
2018-04-22T06:39:03.636Z,1007.89
2018-04-22T06:39:39.034Z,1007.90
2018-04-22T06:40:14.596Z,1007.87
2018-04-22T06:40:50.000Z,1007.86
2018-04-22T06:41:25.339Z,1007.85
2018-04-22T06:42:00.901Z,1007.84
2018-04-22T06:42:36.646Z,1007.82
2018-04-22T06:43:12.127Z,1007.85
2018-04-22T06:43:49.740Z,1007.84
2018-04-22T06:44:25.254Z,1007.83
2018-04-22T06:45:00.575Z,1007.83
2018-04-22T06:45:35.867Z,1007.80
2018-04-22T06:46:11.468Z,1007.79
2018-04-22T06:46:46.608Z,1007.79
2018-04-22T06:47:22.058Z,1007.81
2018-04-22T06:47:57.567Z,1007.80
2018-04-22T06:48:32.783Z,1007.75
2018-04-22T06:49:08.192Z,1007.78
2018-04-22T06:49:43.297Z,1007.75
2018-04-22T06:50:18.697Z,1007.74
2018-04-22T06:50:54.423Z,1007.72
2018-04-22T06:51:29.525Z,1007.72
2018-04-22T06:52:04.892Z,1007.70
2018-04-22T06:52:40.193Z,1007.70
2018-04-22T06:53:15.569Z,1007.71
2018-04-22T06:53:50.831Z,1007.65
2018-04-22T06:54:26.061Z,1007.66
2018-04-22T06:55:01.587Z,1007.71
2018-04-22T06:55:37.211Z,1007.70
2018-04-22T06:56:12.441Z,1007.72
2018-04-22T06:56:47.893Z,1007.75
2018-04-22T06:57:23.017Z,1007.69
2018-04-22T06:57:58.469Z,1007.77
2018-04-22T06:58:33.861Z,1007.71
2018-04-22T06:59:08.982Z,1007.76
2018-04-22T06:59:44.286Z,1007.73
2018-04-22T07:00:19.425Z,1007.75
2018-04-22T07:00:54.744Z,1007.75
2018-04-22T07:01:30.476Z,1007.69
2018-04-22T07:02:05.861Z,1007.69
2018-04-22T07:02:41.314Z,1007.66
2018-04-22T07:03:16.713Z,1007.65
2018-04-22T07:03:52.076Z,1007.64
2018-04-22T07:04:27.271Z,1007.71
2018-04-22T07:05:03.808Z,1007.70
2018-04-22T07:05:39.712Z,1007.68
2018-04-22T07:06:15.026Z,1007.69
2018-04-22T07:06:50.209Z,1007.68
2018-04-22T07:07:25.682Z,1007.69
2018-04-22T07:08:01.168Z,1007.68
2018-04-22T07:08:38.428Z,1007.68